Time;durP1;ratioP1;P1;durP2;ratioP2;P2;SDS_P1;SDS_P2;PMS_P1;PMS_P2;Temp;Humidity;BMP_temperature;BMP_pressure;BME280_temperature;BME280_humidity;BME280_pressure;Samples;Min_cycle;Max_cycle;Signal;HPM_P1;HPM_P2
2023/01/26 00:01:22;;;;;;;25.20;12.55;;;;;;;;;;5078319;28;20037;-79
2023/01/26 00:03:50;;;;;;;25.20;13.10;;;;;;;;;;5079427;28;20517;-78
2023/01/26 00:06:19;;;;;;;25.27;12.48;;;;;;;;;;5079363;28;20038;-78
2023/01/26 00:08:48;;;;;;;24.25;12.73;;;;;;;;;;5079108;28;20052;-79
2023/01/26 00:11:16;;;;;;;25.45;12.73;;;;;;;;;;5079421;28;20048;-78
2023/01/26 00:13:44;;;;;;;25.17;12.32;;;;;;;;;;5079416;28;20051;-79
2023/01/26 00:16:12;;;;;;;25.67;13.48;;;;;;;;;;5079436;28;20037;-79
2023/01/26 00:18:40;;;;;;;33.05;14.57;;;;;;;;;;5079271;28;20067;-79
2023/01/26 00:21:08;;;;;;;27.27;14.25;;;;;;;;;;5079408;28;20032;-79
2023/01/26 00:23:36;;;;;;;28.67;13.77;;;;;;;;;;5079019;28;20045;-79
2023/01/26 00:26:05;;;;;;;28.58;14.38;;;;;;;;;;5077819;28;20411;-78
2023/01/26 00:28:33;;;;;;;28.63;13.73;;;;;;;;;;5079129;28;20064;-79
2023/01/26 00:31:04;;;;;;;32.75;15.02;;;;;;;;;;5077463;28;20040;-78
2023/01/26 00:33:32;;;;;;;26.42;13.05;;;;;;;;;;5077696;28;20494;-79
2023/01/26 00:35:59;;;;;;;27.05;13.85;;;;;;;;;;5077608;28;20047;-79
2023/01/26 00:38:27;;;;;;;25.33;13.02;;;;;;;;;;5078981;28;20098;-80
2023/01/26 00:40:55;;;;;;;25.92;13.05;;;;;;;;;;5078177;28;20048;-79
2023/01/26 00:43:22;;;;;;;30.50;14.10;;;;;;;;;;5077836;28;20494;-79
2023/01/26 00:45:51;;;;;;;26.15;12.07;;;;;;;;;;5079075;28;20113;-79
2023/01/26 00:48:19;;;;;;;25.75;12.60;;;;;;;;;;5077793;28;20048;-79
2023/01/26 00:50:51;;;;;;;27.65;12.43;;;;;;;;;;5079132;28;20112;-78
2023/01/26 00:53:18;;;;;;;24.08;11.00;;;;;;;;;;5091050;28;20070;-78
2023/01/26 00:55:46;;;;;;;29.10;12.65;;;;;;;;;;5090310;28;20045;-77
2023/01/26 00:58:13;;;;;;;26.55;12.10;;;;;;;;;;5076254;28;20044;-79
2023/01/26 01:00:41;;;;;;;27.55;13.20;;;;;;;;;;5074866;28;20410;-79
2023/01/26 01:03:09;;;;;;;29.33;14.35;;;;;;;;;;5074198;28;20040;-79
2023/01/26 01:05:37;;;;;;;23.45;10.93;;;;;;;;;;5075967;28;20048;-80
2023/01/26 01:08:05;;;;;;;27.48;12.60;;;;;;;;;;5075448;28;20063;-79
2023/01/26 01:10:34;;;;;;;26.55;13.18;;;;;;;;;;5074053;28;20047;-79
2023/01/26 01:13:01;;;;;;;24.60;12.40;;;;;;;;;;5075120;28;20059;-79
2023/01/26 01:15:29;;;;;;;26.58;12.32;;;;;;;;;;5075189;28;20048;-79
2023/01/26 01:17:56;;;;;;;23.55;11.00;;;;;;;;;;5073872;28;20040;-78
2023/01/26 01:20:24;;;;;;;24.63;12.40;;;;;;;;;;5074103;28;20048;-79
2023/01/26 01:22:51;;;;;;;27.20;12.18;;;;;;;;;;5075552;28;20112;-79
2023/01/26 01:25:19;;;;;;;26.00;12.63;;;;;;;;;;5075365;28;20036;-79
2023/01/26 01:27:46;;;;;;;22.90;12.02;;;;;;;;;;5074061;28;20052;-80
2023/01/26 01:30:14;;;;;;;27.80;13.55;;;;;;;;;;5073938;28;20068;-80
2023/01/26 01:32:43;;;;;;;25.85;12.40;;;;;;;;;;5073823;28;20399;-80
2023/01/26 01:35:11;;;;;;;25.58;11.95;;;;;;;;;;5075282;28;20123;-79
2023/01/26 01:37:38;;;;;;;21.67;11.35;;;;;;;;;;5073756;28;20044;-79
2023/01/26 01:40:06;;;;;;;26.80;13.00;;;;;;;;;;5073674;28;20044;-79
2023/01/26 01:42:34;;;;;;;27.00;11.90;;;;;;;;;;5073397;28;20513;-81
2023/01/26 01:45:20;;;;;;;32.63;12.88;;;;;;;;;;5073745;28;20049;-79
2023/01/26 01:47:48;;;;;;;24.27;12.00;;;;;;;;;;5073594;28;20044;-79
2023/01/26 01:50:16;;;;;;;27.02;12.85;;;;;;;;;;5074664;28;20058;-79
2023/01/26 01:52:44;;;;;;;26.98;12.43;;;;;;;;;;5073623;28;20044;-79
2023/01/26 01:55:15;;;;;;;28.90;13.82;;;;;;;;;;5074919;28;21056;-79
2023/01/26 01:57:45;;;;;;;25.95;12.40;;;;;;;;;;5074789;28;20469;-79
2023/01/26 02:00:12;;;;;;;22.67;11.23;;;;;;;;;;5073313;28;20441;-78
2023/01/26 02:02:41;;;;;;;26.92;12.00;;;;;;;;;;5072597;28;20051;-78
2023/01/26 02:05:13;;;;;;;27.25;12.98;;;;;;;;;;5074229;28;20123;-78
2023/01/26 02:07:40;;;;;;;25.95;12.80;;;;;;;;;;5056928;28;20113;-78
2023/01/26 02:10:18;;;;;;;25.08;12.82;;;;;;;;;;5074261;28;20070;-78
2023/01/26 02:12:50;;;;;;;24.83;12.20;;;;;;;;;;5072966;28;20041;-79
2023/01/26 02:15:17;;;;;;;26.75;12.88;;;;;;;;;;5075610;28;20048;-79
2023/01/26 02:17:45;;;;;;;23.77;11.27;;;;;;;;;;5075944;28;20041;-79
2023/01/26 02:20:15;;;;;;;24.10;11.68;;;;;;;;;;5073399;28;20036;-78
2023/01/26 02:23:00;;;;;;;23.80;11.35;;;;;;;;;;5073586;28;20059;-79
2023/01/26 02:25:37;;;;;;;20.92;10.77;;;;;;;;;;5072891;28;20048;-79
2023/01/26 02:28:06;;;;;;;23.90;11.55;;;;;;;;;;5072556;28;20120;-79
2023/01/26 02:30:33;;;;;;;24.88;11.75;;;;;;;;;;5072572;28;20067;-78
2023/01/26 02:33:01;;;;;;;22.23;11.50;;;;;;;;;;5072299;28;20055;-78
2023/01/26 02:35:29;;;;;;;22.42;11.25;;;;;;;;;;5055959;28;20106;-79
2023/01/26 02:37:58;;;;;;;25.83;11.45;;;;;;;;;;5073633;28;20044;-78
2023/01/26 02:40:26;;;;;;;23.67;11.57;;;;;;;;;;5073323;28;20094;-79
2023/01/26 02:42:54;;;;;;;21.95;10.98;;;;;;;;;;5072555;28;20048;-78
2023/01/26 02:45:22;;;;;;;22.90;11.32;;;;;;;;;;5073493;28;20072;-78
2023/01/26 02:47:49;;;;;;;22.00;11.35;;;;;;;;;;5071996;28;20136;-79
2023/01/26 02:50:16;;;;;;;27.23;12.88;;;;;;;;;;5072174;28;20504;-79
2023/01/26 02:52:44;;;;;;;24.00;10.93;;;;;;;;;;5072030;28;20045;-78
2023/01/26 02:55:27;;;;;;;23.75;11.23;;;;;;;;;;5056779;28;20161;-78
2023/01/26 02:57:55;;;;;;;27.00;11.80;;;;;;;;;;5073435;28;20486;-78
2023/01/26 03:00:27;;;;;;;24.35;11.70;;;;;;;;;;5072043;28;20043;-78
2023/01/26 03:02:56;;;;;;;21.92;11.98;;;;;;;;;;5073278;28;20041;-78
2023/01/26 03:05:26;;;;;;;24.65;12.52;;;;;;;;;;5071911;28;20494;-78
2023/01/26 03:07:54;;;;;;;23.90;12.32;;;;;;;;;;5072069;28;20138;-78
2023/01/26 03:10:25;;;;;;;27.25;12.82;;;;;;;;;;5071745;28;20044;-78
2023/01/26 03:12:53;;;;;;;25.42;12.85;;;;;;;;;;5072275;28;20045;-78
2023/01/26 03:29:22;;;;;;;25.15;12.25;;;;;;;;;;5071786;28;20044;-78
2023/01/26 03:31:51;;;;;;;27.25;12.13;;;;;;;;;;5071438;28;20043;-79
2023/01/26 03:34:19;;;;;;;25.02;12.23;;;;;;;;;;5071330;28;20052;-79
2023/01/26 03:36:47;;;;;;;24.08;11.55;;;;;;;;;;5055458;28;20041;-79
2023/01/26 03:56:19;;;;;;;27.90;12.82;;;;;;;;;;5071278;28;20455;-78
2023/01/26 03:58:50;;;;;;;28.38;13.25;;;;;;;;;;5071794;28;20048;-79
2023/01/26 04:01:25;;;;;;;28.45;11.95;;;;;;;;;;5071351;28;20496;-79
2023/01/26 04:09:34;;;;;;;29.65;13.65;;;;;;;;;;5071467;28;20052;-79
2023/01/26 04:12:01;;;;;;;30.67;13.80;;;;;;;;;;5070998;28;20094;-78
2023/01/26 04:22:55;;;;;;;27.50;13.02;;;;;;;;;;5071233;28;20068;-78
2023/01/26 04:25:23;;;;;;;27.77;13.27;;;;;;;;;;5071174;28;20041;-78
2023/01/26 04:27:51;;;;;;;30.15;14.18;;;;;;;;;;5074150;28;20460;-79
2023/01/26 04:30:19;;;;;;;28.67;13.57;;;;;;;;;;5076116;28;20438;-78
2023/01/26 04:32:47;;;;;;;28.77;14.20;;;;;;;;;;5074712;28;20047;-78
2023/01/26 04:35:15;;;;;;;28.92;13.90;;;;;;;;;;5075028;28;20044;-79
2023/01/26 04:37:43;;;;;;;25.92;13.20;;;;;;;;;;5074951;28;20051;-78
2023/01/26 04:40:11;;;;;;;29.20;14.02;;;;;;;;;;5074419;28;20123;-77
2023/01/26 04:42:40;;;;;;;28.90;13.50;;;;;;;;;;5073820;28;20075;-79
2023/01/26 04:45:09;;;;;;;31.88;14.45;;;;;;;;;;5074533;28;20044;-79
2023/01/26 04:47:37;;;;;;;29.50;12.93;;;;;;;;;;5074622;28;20044;-77
2023/01/26 04:50:05;;;;;;;26.67;12.85;;;;;;;;;;5074257;28;20132;-77
2023/01/26 04:52:33;;;;;;;33.10;14.73;;;;;;;;;;5074323;28;20467;-78
2023/01/26 04:55:00;;;;;;;30.35;14.15;;;;;;;;;;5074128;28;20682;-78
2023/01/26 04:57:31;;;;;;;29.75;15.10;;;;;;;;;;5074336;28;20037;-79
2023/01/26 05:00:01;;;;;;;32.25;15.32;;;;;;;;;;5074205;28;20582;-78
2023/01/26 05:02:28;;;;;;;32.65;14.70;;;;;;;;;;5076817;28;20122;-77
2023/01/26 05:04:56;;;;;;;32.63;15.32;;;;;;;;;;5078573;28;20048;-77
2023/01/26 05:07:24;;;;;;;29.88;14.40;;;;;;;;;;5074122;28;20067;-78
2023/01/26 05:09:54;;;;;;;31.23;14.98;;;;;;;;;;5074158;28;20418;-78
2023/01/26 05:12:41;;;;;;;30.58;15.13;;;;;;;;;;5073591;28;20056;-78
2023/01/26 05:15:27;;;;;;;33.97;15.13;;;;;;;;;;5075320;28;20135;-78
2023/01/26 05:18:20;;;;;;;32.75;15.23;;;;;;;;;;5059941;28;20064;-76
2023/01/26 05:21:11;;;;;;;30.90;14.18;;;;;;;;;;5046032;28;20079;-76
2023/01/26 05:23:44;;;;;;;32.47;14.82;;;;;;;;;;5073808;28;20049;-77
2023/01/26 05:26:31;;;;;;;27.02;14.13;;;;;;;;;;5074266;28;20054;-78
2023/01/26 05:29:03;;;;;;;34.47;16.45;;;;;;;;;;5072265;28;20041;-78
2023/01/26 05:31:31;;;;;;;38.47;16.30;;;;;;;;;;5075195;28;20051;-77
2023/01/26 05:33:58;;;;;;;32.35;15.02;;;;;;;;;;5073247;28;20036;-78
2023/01/26 05:36:26;;;;;;;38.10;17.27;;;;;;;;;;5074056;28;20449;-78
2023/01/26 05:38:54;;;;;;;39.00;18.95;;;;;;;;;;5057772;28;20044;-78
2023/01/26 05:41:26;;;;;;;39.00;19.40;;;;;;;;;;5074155;28;20486;-76
2023/01/26 05:44:21;;;;;;;32.35;16.05;;;;;;;;;;5073243;28;20048;-76
2023/01/26 05:46:53;;;;;;;37.03;17.67;;;;;;;;;;5072424;28;20094;-76
2023/01/26 05:49:21;;;;;;;37.63;17.40;;;;;;;;;;5072533;28;20522;-76
2023/01/26 05:51:50;;;;;;;32.22;15.93;;;;;;;;;;5072788;28;20098;-77
2023/01/26 05:54:17;;;;;;;33.70;16.30;;;;;;;;;;5073260;28;20053;-76
2023/01/26 05:56:45;;;;;;;33.33;14.55;;;;;;;;;;5072939;28;20037;-74
2023/01/26 05:59:13;;;;;;;32.60;16.35;;;;;;;;;;5074285;28;20495;-76
2023/01/26 06:01:42;;;;;;;31.40;15.73;;;;;;;;;;5072842;28;20041;-77
2023/01/26 06:04:11;;;;;;;28.73;13.70;;;;;;;;;;5072889;28;20498;-77
2023/01/26 06:06:55;;;;;;;31.65;16.08;;;;;;;;;;5072789;28;20041;-77
2023/01/26 06:09:26;;;;;;;33.97;14.90;;;;;;;;;;5072742;28;20041;-78
2023/01/26 06:12:00;;;;;;;30.63;14.52;;;;;;;;;;5074202;28;20487;-77
2023/01/26 06:14:46;;;;;;;30.52;15.02;;;;;;;;;;5072357;28;20125;-79
2023/01/26 06:17:15;;;;;;;34.75;16.63;;;;;;;;;;5073122;28;20131;-79
2023/01/26 06:19:43;;;;;;;35.05;17.75;;;;;;;;;;5072930;28;20379;-79
2023/01/26 06:22:12;;;;;;;32.90;16.08;;;;;;;;;;5073505;28;20449;-79
2023/01/26 06:24:43;;;;;;;31.73;15.43;;;;;;;;;;5073574;28;20455;-79
2023/01/26 06:27:15;;;;;;;35.20;16.52;;;;;;;;;;5073393;28;20143;-78
2023/01/26 06:29:45;;;;;;;37.22;16.63;;;;;;;;;;5072640;28;20051;-79
2023/01/26 06:32:13;;;;;;;33.10;16.65;;;;;;;;;;5072816;28;20071;-78
2023/01/26 06:34:42;;;;;;;35.22;15.63;;;;;;;;;;5072631;28;20055;-79
2023/01/26 06:37:10;;;;;;;33.40;15.55;;;;;;;;;;5072936;28;20560;-78
2023/01/26 06:39:40;;;;;;;34.13;15.60;;;;;;;;;;5072668;28;20453;-79
2023/01/26 06:42:08;;;;;;;34.17;16.25;;;;;;;;;;5072810;28;20048;-78
2023/01/26 06:44:37;;;;;;;38.22;18.83;;;;;;;;;;5072397;28;20048;-79
2023/01/26 06:47:06;;;;;;;40.45;20.27;;;;;;;;;;5072239;28;20392;-78
2023/01/26 06:49:34;;;;;;;35.58;17.10;;;;;;;;;;5071595;28;20064;-79
2023/01/26 06:52:21;;;;;;;37.13;16.90;;;;;;;;;;5072124;28;20045;-78
2023/01/26 06:54:51;;;;;;;42.58;20.80;;;;;;;;;;5071960;28;20055;-78
2023/01/26 06:57:41;;;;;;;36.78;18.02;;;;;;;;;;5072117;28;20048;-79
2023/01/26 07:00:27;;;;;;;40.58;19.10;;;;;;;;;;5073957;28;20055;-80
2023/01/26 07:03:12;;;;;;;36.75;16.95;;;;;;;;;;5073519;28;20028;-79
2023/01/26 07:05:39;;;;;;;38.97;19.60;;;;;;;;;;5073469;28;20391;-79
2023/01/26 07:08:07;;;;;;;35.88;16.27;;;;;;;;;;5073411;28;20090;-79
2023/01/26 07:10:35;;;;;;;31.20;14.68;;;;;;;;;;5073570;28;20044;-79
2023/01/26 07:13:04;;;;;;;34.60;16.38;;;;;;;;;;5073430;28;20041;-78
2023/01/26 07:15:31;;;;;;;36.60;17.48;;;;;;;;;;5071930;28;20087;-78
2023/01/26 07:17:59;;;;;;;40.13;16.55;;;;;;;;;;5073295;28;20040;-79
2023/01/26 07:20:27;;;;;;;35.28;16.15;;;;;;;;;;5073365;28;20458;-79
2023/01/26 07:22:54;;;;;;;40.97;17.70;;;;;;;;;;5072584;28;20052;-78
2023/01/26 07:25:22;;;;;;;37.60;17.90;;;;;;;;;;5074271;28;20049;-79
2023/01/26 07:27:54;;;;;;;35.88;17.08;;;;;;;;;;5073349;28;20041;-79
2023/01/26 07:30:22;;;;;;;35.30;16.00;;;;;;;;;;5073533;28;20044;-79
2023/01/26 07:32:49;;;;;;;36.38;16.60;;;;;;;;;;5073476;28;20044;-78
2023/01/26 07:35:17;;;;;;;35.03;16.30;;;;;;;;;;5072854;28;20063;-78
2023/01/26 07:37:44;;;;;;;32.97;16.30;;;;;;;;;;5073197;28;20032;-78
2023/01/26 07:40:12;;;;;;;32.83;14.57;;;;;;;;;;5073597;28;20048;-78
2023/01/26 07:42:40;;;;;;;38.45;17.48;;;;;;;;;;5073188;28;20044;-78
2023/01/26 07:45:18;;;;;;;35.45;18.48;;;;;;;;;;5073684;28;20040;-77
2023/01/26 07:47:45;;;;;;;33.50;15.50;;;;;;;;;;5073217;28;20123;-78
2023/01/26 07:50:13;;;;;;;36.05;18.58;;;;;;;;;;5074103;28;20048;-77
2023/01/26 07:52:42;;;;;;;36.72;18.02;;;;;;;;;;5074364;28;20090;-79
2023/01/26 07:55:10;;;;;;;38.53;16.92;;;;;;;;;;5074869;28;20044;-77
2023/01/26 07:57:37;;;;;;;40.47;18.63;;;;;;;;;;5074070;28;20052;-78
2023/01/26 08:00:05;;;;;;;32.25;14.30;;;;;;;;;;5073759;28;20044;-77
2023/01/26 08:02:37;;;;;;;40.97;19.17;;;;;;;;;;5077888;28;20045;-79
2023/01/26 08:05:05;;;;;;;32.20;15.77;;;;;;;;;;5078086;28;20028;-77
2023/01/26 08:07:33;;;;;;;33.60;16.23;;;;;;;;;;5076620;28;20098;-79
2023/01/26 08:10:01;;;;;;;34.70;16.27;;;;;;;;;;5077377;28;20044;-78
2023/01/26 08:12:28;;;;;;;33.95;15.35;;;;;;;;;;5076587;28;20394;-78
2023/01/26 08:14:55;;;;;;;30.77;16.42;;;;;;;;;;5078704;28;20132;-78
2023/01/26 08:17:23;;;;;;;33.97;15.63;;;;;;;;;;5076950;28;20083;-78
2023/01/26 08:19:50;;;;;;;30.75;14.82;;;;;;;;;;5076332;28;20502;-78
2023/01/26 08:22:18;;;;;;;35.28;16.75;;;;;;;;;;5078197;28;20029;-77
2023/01/26 08:24:45;;;;;;;31.55;15.98;;;;;;;;;;5078425;28;20070;-77
2023/01/26 08:27:14;;;;;;;30.15;15.77;;;;;;;;;;5077033;28;20387;-76
2023/01/26 08:29:42;;;;;;;31.33;15.55;;;;;;;;;;5076291;28;20074;-78
2023/01/26 08:32:10;;;;;;;34.25;16.27;;;;;;;;;;5078262;28;20040;-77
2023/01/26 08:34:37;;;;;;;36.17;16.65;;;;;;;;;;5075938;28;20055;-78
2023/01/26 08:37:04;;;;;;;41.83;18.60;;;;;;;;;;5077106;28;20063;-78
2023/01/26 08:39:32;;;;;;;29.27;14.55;;;;;;;;;;5076763;28;20040;-79
2023/01/26 08:41:59;;;;;;;39.78;18.38;;;;;;;;;;5077829;28;20176;-77
2023/01/26 08:44:27;;;;;;;37.28;16.30;;;;;;;;;;5075972;28;20094;-78
2023/01/26 08:46:54;;;;;;;36.83;17.40;;;;;;;;;;5076359;28;20479;-79
2023/01/26 08:49:22;;;;;;;36.28;14.88;;;;;;;;;;5075993;28;20140;-77
2023/01/26 08:51:49;;;;;;;34.95;16.20;;;;;;;;;;5075530;28;20279;-78
2023/01/26 08:54:17;;;;;;;31.85;14.57;;;;;;;;;;5074717;28;20112;-77
2023/01/26 08:56:44;;;;;;;38.30;17.77;;;;;;;;;;5075645;28;20127;-78
2023/01/26 08:59:12;;;;;;;33.45;15.57;;;;;;;;;;5075393;28;20079;-78
2023/01/26 09:01:39;;;;;;;37.15;17.73;;;;;;;;;;5075418;28;20106;-78
2023/01/26 09:04:07;;;;;;;36.35;16.92;;;;;;;;;;5075994;28;20066;-78
2023/01/26 09:06:34;;;;;;;33.17;15.50;;;;;;;;;;5073983;28;20049;-78
2023/01/26 09:09:02;;;;;;;33.55;15.40;;;;;;;;;;5074281;28;20075;-77
2023/01/26 09:11:30;;;;;;;32.97;14.95;;;;;;;;;;5075317;28;20036;-79
2023/01/26 09:13:58;;;;;;;37.22;15.95;;;;;;;;;;5074399;28;20075;-79
2023/01/26 09:16:25;;;;;;;27.92;14.30;;;;;;;;;;5075149;28;20059;-79
2023/01/26 09:18:53;;;;;;;27.58;14.20;;;;;;;;;;5075160;28;20072;-79
2023/01/26 09:21:22;;;;;;;34.80;17.38;;;;;;;;;;5074966;28;20052;-78
2023/01/26 09:23:50;;;;;;;35.00;16.73;;;;;;;;;;5075090;28;20041;-78
2023/01/26 09:26:17;;;;;;;34.80;16.27;;;;;;;;;;5075226;28;20040;-78
2023/01/26 09:28:48;;;;;;;35.67;17.30;;;;;;;;;;5075282;28;20044;-78
2023/01/26 09:31:16;;;;;;;37.10;18.02;;;;;;;;;;5075206;28;20044;-78
2023/01/26 09:33:44;;;;;;;55.28;22.33;;;;;;;;;;5074579;28;20048;-78
2023/01/26 09:36:12;;;;;;;59.95;32.15;;;;;;;;;;5074578;28;20051;-77
2023/01/26 09:38:39;;;;;;;40.50;21.02;;;;;;;;;;5074954;28;20094;-79
2023/01/26 09:41:07;;;;;;;37.50;18.08;;;;;;;;;;5073698;28;20049;-78
2023/01/26 09:43:47;;;;;;;45.30;21.52;;;;;;;;;;5075320;28;20097;-79
2023/01/26 09:46:35;;;;;;;35.53;16.45;;;;;;;;;;5075422;28;20063;-79
2023/01/26 09:49:10;;;;;;;26.30;11.15;;;;;;;;;;5035036;28;20049;-78
2023/01/26 09:51:37;;;;;;;;;;;;;;;;;;5075382;28;20040;-79
2023/01/26 09:54:20;;;;;;;35.38;19.63;;;;;;;;;;5075273;28;19924;-79
2023/01/26 09:56:48;;;;;;;35.83;17.40;;;;;;;;;;5074885;28;20047;-79
2023/01/26 09:59:25;;;;;;;39.90;19.00;;;;;;;;;;5074604;28;20079;-77
2023/01/26 10:01:53;;;;;;;31.02;15.13;;;;;;;;;;5074749;28;20074;-79
2023/01/26 10:04:35;;;;;;;28.35;13.40;;;;;;;;;;5075114;28;20075;-78
2023/01/26 10:07:05;;;;;;;31.15;14.48;;;;;;;;;;5074782;28;20036;-78
2023/01/26 10:09:48;;;;;;;34.13;14.27;;;;;;;;;;5076191;28;20506;-79
2023/01/26 10:12:22;;;;;;;37.88;17.88;;;;;;;;;;5056843;28;20041;-78
2023/01/26 10:15:16;;;;;;;35.17;16.80;;;;;;;;;;5081096;28;20413;-79
2023/01/26 10:17:45;;;;;;;46.55;20.48;;;;;;;;;;5052743;28;20059;-80
2023/01/26 10:20:12;;;;;;;44.17;21.02;;;;;;;;;;5079110;28;20048;-79
2023/01/26 10:22:40;;;;;;;44.58;19.85;;;;;;;;;;5078975;28;20564;-80
2023/01/26 10:25:15;;;;;;;31.50;16.15;;;;;;;;;;5073153;28;20441;-79
2023/01/26 10:27:44;;;;;;;31.88;14.18;;;;;;;;;;5075097;28;20544;-79
2023/01/26 10:30:13;;;;;;;32.35;15.23;;;;;;;;;;5074726;28;20090;-78
2023/01/26 10:32:41;;;;;;;39.90;17.77;;;;;;;;;;5075482;28;20052;-80
2023/01/26 10:35:29;;;;;;;39.45;17.50;;;;;;;;;;5075211;28;20042;-79
2023/01/26 10:37:57;;;;;;;34.35;15.75;;;;;;;;;;5073958;28;20418;-79
2023/01/26 10:40:25;;;;;;;35.25;16.92;;;;;;;;;;5074475;28;20055;-79
2023/01/26 10:42:56;;;;;;;38.08;16.48;;;;;;;;;;5075347;28;20405;-79
2023/01/26 10:45:29;;;;;;;36.95;15.15;;;;;;;;;;5074507;28;20200;-79
2023/01/26 10:48:15;;;;;;;38.45;17.65;;;;;;;;;;5077225;28;20051;-78
2023/01/26 10:50:43;;;;;;;36.25;16.33;;;;;;;;;;5074974;28;20047;-79
2023/01/26 10:53:15;;;;;;;35.45;15.05;;;;;;;;;;5076020;28;20051;-79
2023/01/26 10:55:43;;;;;;;45.40;19.20;;;;;;;;;;5075408;28;20044;-79
2023/01/26 10:58:29;;;;;;;41.25;18.38;;;;;;;;;;5074027;28;20032;-79
2023/01/26 11:00:59;;;;;;;37.53;17.52;;;;;;;;;;5073888;28;20098;-79
2023/01/26 11:03:27;;;;;;;36.22;15.30;;;;;;;;;;5073850;28;20082;-79
2023/01/26 11:06:07;;;;;;;37.00;17.83;;;;;;;;;;5073785;28;20090;-79
2023/01/26 11:08:36;;;;;;;36.58;16.52;;;;;;;;;;5074658;28;20082;-79
2023/01/26 11:11:06;;;;;;;35.83;15.75;;;;;;;;;;5074127;28;20067;-79
2023/01/26 11:13:34;;;;;;;43.25;19.77;;;;;;;;;;5074591;28;20071;-79
2023/01/26 11:16:17;;;;;;;44.53;19.15;;;;;;;;;;5074841;28;20048;-78
2023/01/26 11:18:53;;;;;;;45.33;19.48;;;;;;;;;;5074353;28;20040;-79
2023/01/26 11:21:32;;;;;;;39.65;17.75;;;;;;;;;;5072636;28;20064;-78
2023/01/26 11:24:16;;;;;;;39.15;17.15;;;;;;;;;;5074921;28;20443;-79
2023/01/26 11:27:00;;;;;;;41.22;19.88;;;;;;;;;;5073331;28;20042;-79
2023/01/26 11:29:37;;;;;;;38.28;17.38;;;;;;;;;;5074120;28;20056;-78
2023/01/26 11:32:21;;;;;;;34.75;16.02;;;;;;;;;;5073553;28;20032;-77
2023/01/26 11:34:53;;;;;;;41.60;18.95;;;;;;;;;;5073244;28;20036;-78
2023/01/26 11:37:23;;;;;;;41.35;18.55;;;;;;;;;;5072916;28;20063;-79
2023/01/26 11:39:54;;;;;;;47.45;19.67;;;;;;;;;;5073697;28;20051;-79
2023/01/26 11:42:21;;;;;;;48.35;19.88;;;;;;;;;;5073364;28;20064;-78
2023/01/26 11:44:48;;;;;;;42.72;18.17;;;;;;;;;;5073166;28;20048;-79
2023/01/26 11:47:25;;;;;;;44.72;20.10;;;;;;;;;;5073311;28;20044;-78
2023/01/26 11:50:01;;;;;;;44.25;19.00;;;;;;;;;;5073161;28;20449;-79
2023/01/26 11:52:29;;;;;;;50.70;21.27;;;;;;;;;;5072962;28;20041;-80
2023/01/26 11:55:02;;;;;;;42.60;18.90;;;;;;;;;;5072801;28;20106;-80
2023/01/26 11:57:56;;;;;;;48.63;20.65;;;;;;;;;;5072489;28;20110;-79
2023/01/26 12:00:29;;;;;;;55.47;22.13;;;;;;;;;;5073822;28;20041;-78
2023/01/26 12:03:04;;;;;;;52.92;23.13;;;;;;;;;;5072896;28;20091;-77
2023/01/26 12:05:52;;;;;;;50.67;20.90;;;;;;;;;;5073498;28;20052;-79
2023/01/26 12:08:38;;;;;;;49.03;21.40;;;;;;;;;;5072765;28;20459;-78
2023/01/26 12:11:21;;;;;;;47.58;21.20;;;;;;;;;;5072414;28;20064;-79
2023/01/26 12:14:01;;;;;;;53.60;21.02;;;;;;;;;;5072387;28;20071;-79
2023/01/26 12:16:35;;;;;;;46.55;20.10;;;;;;;;;;5072328;28;20047;-79
2023/01/26 12:19:11;;;;;;;55.08;20.75;;;;;;;;;;5072278;28;20090;-78
2023/01/26 12:21:42;;;;;;;47.63;20.98;;;;;;;;;;5072649;28;20421;-79
2023/01/26 12:24:12;;;;;;;53.08;21.83;;;;;;;;;;5072438;28;20049;-79
2023/01/26 12:27:02;;;;;;;51.35;20.40;;;;;;;;;;5072240;28;20037;-78
2023/01/26 12:29:55;;;;;;;55.63;21.92;;;;;;;;;;5072184;28;20044;-79
2023/01/26 12:32:24;;;;;;;56.28;21.85;;;;;;;;;;5069029;28;20057;-78
2023/01/26 12:34:52;;;;;;;56.67;22.00;;;;;;;;;;5072043;28;20044;-78
2023/01/26 12:37:19;;;;;;;45.58;18.02;;;;;;;;;;5072514;28;20071;-78
2023/01/26 12:39:49;;;;;;;54.00;19.88;;;;;;;;;;5070861;28;20033;-79
2023/01/26 12:42:38;;;;;;;51.45;20.63;;;;;;;;;;5071923;28;20048;-79
2023/01/26 12:45:09;;;;;;;54.72;21.60;;;;;;;;;;5072276;28;20053;-78
2023/01/26 12:47:44;;;;;;;48.03;19.27;;;;;;;;;;5073251;28;20040;-79
2023/01/26 12:50:26;;;;;;;54.10;21.52;;;;;;;;;;5076243;28;20041;-79
2023/01/26 12:53:13;;;;;;;51.65;20.52;;;;;;;;;;5075924;28;20037;-79
2023/01/26 12:55:52;;;;;;;52.97;21.80;;;;;;;;;;5075533;28;20123;-79
2023/01/26 12:58:26;;;;;;;52.10;19.88;;;;;;;;;;5075365;28;20072;-79
2023/01/26 13:00:57;;;;;;;63.13;21.67;;;;;;;;;;5074410;28;20041;-79
2023/01/26 13:03:28;;;;;;;50.65;17.42;;;;;;;;;;5075521;28;20101;-78
2023/01/26 13:05:55;;;;;;;56.65;20.08;;;;;;;;;;5075097;28;20160;-79
2023/01/26 13:08:32;;;;;;;41.72;18.60;;;;;;;;;;5075737;28;20044;-78
2023/01/26 13:11:03;;;;;;;59.65;21.70;;;;;;;;;;5074511;28;20554;-79
2023/01/26 13:13:30;;;;;;;62.00;24.58;;;;;;;;;;5075448;28;20037;-80
2023/01/26 13:16:16;;;;;;;56.60;23.25;;;;;;;;;;5074937;28;20048;-79
2023/01/26 13:18:44;;;;;;;;;;;;;;;;;;5075505;28;20429;-81
2023/01/26 13:21:11;;;;;;;44.58;17.20;;;;;;;;;;5075053;28;19927;-80
2023/01/26 13:23:40;;;;;;;62.63;22.50;;;;;;;;;;5075234;28;20036;-80
2023/01/26 13:26:14;;;;;;;71.38;24.55;;;;;;;;;;5076305;28;20053;-78
2023/01/26 13:28:42;;;;;;;60.03;22.58;;;;;;;;;;5074665;28;20049;-80
2023/01/26 13:31:10;;;;;;;66.32;23.85;;;;;;;;;;5075419;28;20098;-79
2023/01/26 13:33:38;;;;;;;72.60;25.60;;;;;;;;;;5076197;28;20127;-79
2023/01/26 13:36:11;;;;;;;61.88;21.90;;;;;;;;;;5074316;28;20048;-79
2023/01/26 13:38:42;;;;;;;61.90;25.30;;;;;;;;;;5075598;28;20479;-79
2023/01/26 13:41:15;;;;;;;63.70;22.05;;;;;;;;;;5075774;28;20043;-79
2023/01/26 13:43:44;;;;;;;66.50;23.77;;;;;;;;;;5075578;28;20091;-79
2023/01/26 13:46:19;;;;;;;58.72;21.45;;;;;;;;;;5074932;28;20048;-79
2023/01/26 13:48:48;;;;;;;71.57;24.40;;;;;;;;;;5074543;28;20041;-79
2023/01/26 13:51:20;;;;;;;63.05;23.88;;;;;;;;;;5074543;28;20245;-79
2023/01/26 13:53:49;;;;;;;63.50;24.58;;;;;;;;;;5074445;28;20046;-79
2023/01/26 13:56:22;;;;;;;84.90;30.55;;;;;;;;;;5074215;28;20131;-79
2023/01/26 13:58:49;;;;;;;65.05;23.90;;;;;;;;;;5074266;28;20139;-80
2023/01/26 14:01:18;;;;;;;70.75;25.05;;;;;;;;;;5074398;28;20044;-79
2023/01/26 14:03:45;;;;;;;64.82;22.55;;;;;;;;;;5075087;28;20279;-79
2023/01/26 14:06:18;;;;;;;70.25;24.92;;;;;;;;;;5074386;28;20037;-78
2023/01/26 14:08:50;;;;;;;59.03;21.85;;;;;;;;;;5074025;28;20037;-79
2023/01/26 14:11:20;;;;;;;56.80;23.20;;;;;;;;;;5074131;28;20048;-78
2023/01/26 14:13:51;;;;;;;66.72;24.23;;;;;;;;;;5074042;28;20522;-79
2023/01/26 14:16:21;;;;;;;57.60;22.60;;;;;;;;;;5074182;28;20544;-78
2023/01/26 14:18:51;;;;;;;64.78;21.88;;;;;;;;;;5073971;28;20170;-78
2023/01/26 14:21:21;;;;;;;59.03;21.13;;;;;;;;;;5073918;28;20044;-78
2023/01/26 14:23:55;;;;;;;60.03;21.10;;;;;;;;;;5074078;28;20041;-77
2023/01/26 14:26:31;;;;;;;63.90;25.48;;;;;;;;;;5075138;28;20092;-77
2023/01/26 14:29:02;;;;;;;69.32;27.08;;;;;;;;;;5073686;28;20138;-77
2023/01/26 14:31:31;;;;;;;68.25;26.17;;;;;;;;;;5073087;28;20040;-78
2023/01/26 14:33:59;;;;;;;55.90;19.50;;;;;;;;;;5073001;28;20593;-72
2023/01/26 14:36:37;;;;;;;60.80;23.05;;;;;;;;;;5073067;28;20121;-76
2023/01/26 14:39:16;;;;;;;61.25;22.65;;;;;;;;;;5072500;28;20489;-74
2023/01/26 14:41:44;;;;;;;51.38;21.00;;;;;;;;;;5072883;28;20563;-73
2023/01/26 14:44:11;;;;;;;53.90;21.27;;;;;;;;;;5072673;28;20560;-72
2023/01/26 14:46:51;;;;;;;53.70;22.40;;;;;;;;;;5072537;28;20041;-72
2023/01/26 14:49:28;;;;;;;56.30;20.83;;;;;;;;;;5072532;28;20036;-73
2023/01/26 14:51:57;;;;;;;90.88;33.72;;;;;;;;;;5072794;28;20040;-73
2023/01/26 14:54:31;;;;;;;73.03;27.80;;;;;;;;;;5072921;28;20032;-72
2023/01/26 14:57:00;;;;;;;72.38;28.90;;;;;;;;;;5072302;28;20048;-72
2023/01/26 14:59:33;;;;;;;64.18;24.33;;;;;;;;;;5071191;28;20165;-74
2023/01/26 15:02:13;;;;;;;65.78;23.75;;;;;;;;;;5072836;28;20107;-72
2023/01/26 15:04:41;;;;;;;57.17;21.85;;;;;;;;;;5073020;28;20477;-73
2023/01/26 15:07:22;;;;;;;54.25;21.52;;;;;;;;;;5071598;28;20094;-72
2023/01/26 15:09:53;;;;;;;78.03;31.77;;;;;;;;;;5072336;28;20060;-73
2023/01/26 15:12:20;;;;;;;77.35;30.55;;;;;;;;;;5072816;28;20094;-72
2023/01/26 15:14:49;;;;;;;65.55;24.55;;;;;;;;;;5072621;28;20040;-72
2023/01/26 15:17:36;;;;;;;68.75;26.00;;;;;;;;;;5072551;28;20072;-71
2023/01/26 15:20:11;;;;;;;63.65;24.08;;;;;;;;;;5072807;28;20091;-72
2023/01/26 15:22:39;;;;;;;64.63;24.85;;;;;;;;;;5072724;28;20409;-72
2023/01/26 15:25:24;;;;;;;53.85;23.17;;;;;;;;;;5071119;28;20041;-72
2023/01/26 15:27:54;;;;;;;56.03;25.65;;;;;;;;;;5072439;28;20044;-71